sensor_id;sensor_type;location;lat;lon;timestamp;P1;durP1;ratioP1;P2;durP2;ratioP2
56680;SDS011;42558;52.388;13.390;2023-12-29T00:00:10;9.12;;;3.80;;
56680;SDS011;42558;52.388;13.390;2023-12-29T00:02:38;8.74;;;3.42;;
56680;SDS011;42558;52.388;13.390;2023-12-29T00:05:07;8.36;;;4.18;;
56680;SDS011;42558;52.388;13.390;2023-12-29T00:07:35;9.50;;;3.99;;
56680;SDS011;42558;52.388;13.390;2023-12-29T00:10:03;8.93;;;3.61;;
56680;SDS011;42558;52.388;13.390;2023-12-29T00:12:31;10.83;;;3.80;;
56680;SDS011;42558;52.388;13.390;2023-12-29T00:15:00;6.65;;;3.04;;
56680;SDS011;42558;52.388;13.390;2023-12-29T00:17:28;7.98;;;3.61;;
56680;SDS011;42558;52.388;13.390;2023-12-29T00:19:57;9.88;;;3.99;;
56680;SDS011;42558;52.388;13.390;2023-12-29T00:22:25;7.22;;;3.23;;
56680;SDS011;42558;52.388;13.390;2023-12-29T00:24:54;9.69;;;3.42;;
56680;SDS011;42558;52.388;13.390;2023-12-29T00:27:22;8.55;;;3.61;;
56680;SDS011;42558;52.388;13.390;2023-12-29T00:29:50;8.17;;;3.04;;
56680;SDS011;42558;52.388;13.390;2023-12-29T00:32:19;6.46;;;2.85;;
56680;SDS011;42558;52.388;13.390;2023-12-29T00:34:47;7.98;;;3.04;;
56680;SDS011;42558;52.388;13.390;2023-12-29T00:37:15;7.60;;;3.61;;
56680;SDS011;42558;52.388;13.390;2023-12-29T00:39:44;7.41;;;3.23;;
56680;SDS011;42558;52.388;13.390;2023-12-29T00:42:12;8.36;;;3.42;;
56680;SDS011;42558;52.388;13.390;2023-12-29T00:44:41;8.17;;;3.61;;
56680;SDS011;42558;52.388;13.390;2023-12-29T00:47:09;7.03;;;3.04;;
56680;SDS011;42558;52.388;13.390;2023-12-29T00:49:39;9.12;;;3.61;;
56680;SDS011;42558;52.388;13.390;2023-12-29T00:52:09;7.22;;;3.23;;
56680;SDS011;42558;52.388;13.390;2023-12-29T00:54:37;7.79;;;3.23;;
56680;SDS011;42558;52.388;13.390;2023-12-29T00:57:06;7.41;;;3.04;;
56680;SDS011;42558;52.388;13.390;2023-12-29T00:59:37;8.55;;;3.23;;
56680;SDS011;42558;52.388;13.390;2023-12-29T01:02:09;9.12;;;3.99;;
56680;SDS011;42558;52.388;13.390;2023-12-29T01:04:39;8.36;;;3.61;;
56680;SDS011;42558;52.388;13.390;2023-12-29T01:07:09;7.22;;;3.23;;
56680;SDS011;42558;52.388;13.390;2023-12-29T01:09:38;9.31;;;4.18;;
56680;SDS011;42558;52.388;13.390;2023-12-29T01:12:09;6.27;;;2.85;;
56680;SDS011;42558;52.388;13.390;2023-12-29T01:14:38;10.26;;;3.80;;
56680;SDS011;42558;52.388;13.390;2023-12-29T01:17:07;7.79;;;3.23;;
56680;SDS011;42558;52.388;13.390;2023-12-29T01:19:36;8.17;;;3.23;;
56680;SDS011;42558;52.388;13.390;2023-12-29T01:22:06;7.22;;;3.42;;
56680;SDS011;42558;52.388;13.390;2023-12-29T01:24:36;6.84;;;2.85;;
56680;SDS011;42558;52.388;13.390;2023-12-29T01:27:14;10.07;;;4.18;;
56680;SDS011;42558;52.388;13.390;2023-12-29T01:29:44;9.69;;;3.61;;
56680;SDS011;42558;52.388;13.390;2023-12-29T01:32:12;6.84;;;3.23;;
56680;SDS011;42558;52.388;13.390;2023-12-29T01:34:40;7.60;;;3.23;;
56680;SDS011;42558;52.388;13.390;2023-12-29T01:37:09;7.98;;;3.23;;
56680;SDS011;42558;52.388;13.390;2023-12-29T01:39:37;6.27;;;3.04;;
56680;SDS011;42558;52.388;13.390;2023-12-29T01:42:06;8.93;;;3.61;;
56680;SDS011;42558;52.388;13.390;2023-12-29T01:44:34;9.69;;;3.42;;
56680;SDS011;42558;52.388;13.390;2023-12-29T01:47:05;9.12;;;3.23;;
56680;SDS011;42558;52.388;13.390;2023-12-29T01:49:46;8.55;;;3.04;;
56680;SDS011;42558;52.388;13.390;2023-12-29T01:52:18;7.41;;;3.42;;
56680;SDS011;42558;52.388;13.390;2023-12-29T01:54:50;11.59;;;3.04;;
56680;SDS011;42558;52.388;13.390;2023-12-29T01:57:22;9.69;;;3.42;;
56680;SDS011;42558;52.388;13.390;2023-12-29T01:59:51;7.03;;;3.23;;
56680;SDS011;42558;52.388;13.390;2023-12-29T02:02:21;8.55;;;3.61;;
56680;SDS011;42558;52.388;13.390;2023-12-29T02:04:51;6.46;;;2.85;;
56680;SDS011;42558;52.388;13.390;2023-12-29T02:07:21;7.79;;;2.85;;
56680;SDS011;42558;52.388;13.390;2023-12-29T02:09:51;7.79;;;3.04;;
56680;SDS011;42558;52.388;13.390;2023-12-29T02:12:21;8.36;;;3.42;;
56680;SDS011;42558;52.388;13.390;2023-12-29T02:14:51;7.79;;;3.80;;
56680;SDS011;42558;52.388;13.390;2023-12-29T02:17:29;7.22;;;3.42;;
56680;SDS011;42558;52.388;13.390;2023-12-29T02:20:03;7.22;;;3.61;;
56680;SDS011;42558;52.388;13.390;2023-12-29T02:22:36;8.17;;;3.61;;
56680;SDS011;42558;52.388;13.390;2023-12-29T02:25:06;7.79;;;3.42;;
56680;SDS011;42558;52.388;13.390;2023-12-29T02:27:43;6.65;;;3.04;;
56680;SDS011;42558;52.388;13.390;2023-12-29T02:33:08;7.22;;;3.42;;
56680;SDS011;42558;52.388;13.390;2023-12-29T02:35:43;8.36;;;3.61;;
56680;SDS011;42558;52.388;13.390;2023-12-29T02:38:15;7.98;;;3.61;;
56680;SDS011;42558;52.388;13.390;2023-12-29T02:40:45;8.36;;;3.61;;
56680;SDS011;42558;52.388;13.390;2023-12-29T02:43:15;7.60;;;4.37;;
56680;SDS011;42558;52.388;13.390;2023-12-29T02:45:45;8.55;;;3.99;;
56680;SDS011;42558;52.388;13.390;2023-12-29T02:48:13;7.03;;;3.42;;
56680;SDS011;42558;52.388;13.390;2023-12-29T02:50:42;7.22;;;3.61;;
56680;SDS011;42558;52.388;13.390;2023-12-29T02:53:10;7.03;;;3.61;;
56680;SDS011;42558;52.388;13.390;2023-12-29T02:55:38;7.22;;;3.42;;
56680;SDS011;42558;52.388;13.390;2023-12-29T02:58:08;7.03;;;3.04;;
56680;SDS011;42558;52.388;13.390;2023-12-29T03:00:35;8.17;;;3.99;;
56680;SDS011;42558;52.388;13.390;2023-12-29T03:03:04;7.03;;;3.61;;
56680;SDS011;42558;52.388;13.390;2023-12-29T03:05:32;7.60;;;3.61;;
56680;SDS011;42558;52.388;13.390;2023-12-29T03:08:01;7.03;;;3.23;;
56680;SDS011;42558;52.388;13.390;2023-12-29T03:10:29;7.79;;;3.04;;
56680;SDS011;42558;52.388;13.390;2023-12-29T03:12:57;6.65;;;2.85;;
56680;SDS011;42558;52.388;13.390;2023-12-29T03:15:26;7.60;;;3.04;;
56680;SDS011;42558;52.388;13.390;2023-12-29T03:17:54;6.84;;;3.61;;
56680;SDS011;42558;52.388;13.390;2023-12-29T03:20:23;9.12;;;3.61;;
56680;SDS011;42558;52.388;13.390;2023-12-29T03:22:51;7.03;;;3.23;;
56680;SDS011;42558;52.388;13.390;2023-12-29T03:25:19;6.08;;;3.42;;
56680;SDS011;42558;52.388;13.390;2023-12-29T03:27:48;7.79;;;3.42;;
56680;SDS011;42558;52.388;13.390;2023-12-29T03:30:16;6.08;;;2.85;;
56680;SDS011;42558;52.388;13.390;2023-12-29T03:32:45;6.84;;;3.42;;
56680;SDS011;42558;52.388;13.390;2023-12-29T03:35:13;6.65;;;3.23;;
56680;SDS011;42558;52.388;13.390;2023-12-29T03:37:42;7.79;;;3.23;;
56680;SDS011;42558;52.388;13.390;2023-12-29T03:40:14;7.41;;;2.47;;
56680;SDS011;42558;52.388;13.390;2023-12-29T03:42:41;6.84;;;3.42;;
56680;SDS011;42558;52.388;13.390;2023-12-29T03:45:10;6.65;;;3.23;;
56680;SDS011;42558;52.388;13.390;2023-12-29T03:47:38;6.65;;;3.42;;
56680;SDS011;42558;52.388;13.390;2023-12-29T03:50:07;8.36;;;2.85;;
56680;SDS011;42558;52.388;13.390;2023-12-29T03:52:35;7.79;;;3.23;;
56680;SDS011;42558;52.388;13.390;2023-12-29T03:55:04;7.03;;;2.47;;
56680;SDS011;42558;52.388;13.390;2023-12-29T03:57:32;7.03;;;2.85;;
56680;SDS011;42558;52.388;13.390;2023-12-29T04:00:00;7.41;;;3.42;;
56680;SDS011;42558;52.388;13.390;2023-12-29T04:02:29;6.46;;;3.04;;
56680;SDS011;42558;52.388;13.390;2023-12-29T04:04:58;7.22;;;2.85;;
56680;SDS011;42558;52.388;13.390;2023-12-29T04:07:30;6.27;;;2.85;;
56680;SDS011;42558;52.388;13.390;2023-12-29T04:09:59;5.89;;;2.66;;
56680;SDS011;42558;52.388;13.390;2023-12-29T04:12:28;7.79;;;2.85;;
56680;SDS011;42558;52.388;13.390;2023-12-29T04:14:57;5.32;;;2.66;;
56680;SDS011;42558;52.388;13.390;2023-12-29T04:17:27;7.41;;;2.85;;
56680;SDS011;42558;52.388;13.390;2023-12-29T04:19:56;6.27;;;2.28;;
56680;SDS011;42558;52.388;13.390;2023-12-29T04:22:25;5.89;;;2.66;;
56680;SDS011;42558;52.388;13.390;2023-12-29T04:24:55;5.32;;;2.47;;
56680;SDS011;42558;52.388;13.390;2023-12-29T04:27:24;5.89;;;2.47;;
56680;SDS011;42558;52.388;13.390;2023-12-29T04:29:53;10.45;;;2.85;;
56680;SDS011;42558;52.388;13.390;2023-12-29T04:32:22;6.46;;;2.47;;
56680;SDS011;42558;52.388;13.390;2023-12-29T04:34:52;7.41;;;2.85;;
56680;SDS011;42558;52.388;13.390;2023-12-29T04:37:21;6.08;;;2.47;;
56680;SDS011;42558;52.388;13.390;2023-12-29T04:39:50;6.46;;;2.47;;
56680;SDS011;42558;52.388;13.390;2023-12-29T04:42:19;6.08;;;2.66;;
56680;SDS011;42558;52.388;13.390;2023-12-29T04:44:49;7.22;;;3.23;;
56680;SDS011;42558;52.388;13.390;2023-12-29T04:47:18;6.08;;;2.66;;
56680;SDS011;42558;52.388;13.390;2023-12-29T04:49:47;5.89;;;1.71;;
56680;SDS011;42558;52.388;13.390;2023-12-29T04:52:16;6.84;;;2.09;;
56680;SDS011;42558;52.388;13.390;2023-12-29T04:54:46;6.65;;;1.90;;
56680;SDS011;42558;52.388;13.390;2023-12-29T04:57:15;5.51;;;1.90;;
56680;SDS011;42558;52.388;13.390;2023-12-29T04:59:45;6.46;;;1.90;;
56680;SDS011;42558;52.388;13.390;2023-12-29T05:02:14;6.46;;;2.28;;
56680;SDS011;42558;52.388;13.390;2023-12-29T05:04:43;6.84;;;2.47;;
56680;SDS011;42558;52.388;13.390;2023-12-29T05:07:12;7.60;;;2.66;;
56680;SDS011;42558;52.388;13.390;2023-12-29T05:09:42;7.03;;;2.28;;
56680;SDS011;42558;52.388;13.390;2023-12-29T05:12:11;6.08;;;2.28;;
56680;SDS011;42558;52.388;13.390;2023-12-29T05:14:41;5.89;;;1.90;;
56680;SDS011;42558;52.388;13.390;2023-12-29T05:17:10;5.32;;;2.09;;
56680;SDS011;42558;52.388;13.390;2023-12-29T05:19:38;4.56;;;1.71;;
56680;SDS011;42558;52.388;13.390;2023-12-29T05:22:07;6.46;;;2.28;;
56680;SDS011;42558;52.388;13.390;2023-12-29T05:24:35;6.65;;;2.28;;
56680;SDS011;42558;52.388;13.390;2023-12-29T05:27:03;6.08;;;2.28;;
56680;SDS011;42558;52.388;13.390;2023-12-29T05:29:32;6.08;;;2.28;;
56680;SDS011;42558;52.388;13.390;2023-12-29T05:32:00;5.32;;;1.90;;
56680;SDS011;42558;52.388;13.390;2023-12-29T05:34:29;5.13;;;2.47;;
56680;SDS011;42558;52.388;13.390;2023-12-29T05:36:57;5.13;;;2.09;;
56680;SDS011;42558;52.388;13.390;2023-12-29T05:39:26;4.94;;;2.09;;
56680;SDS011;42558;52.388;13.390;2023-12-29T05:41:54;5.70;;;2.28;;
56680;SDS011;42558;52.388;13.390;2023-12-29T05:44:23;4.94;;;1.90;;
56680;SDS011;42558;52.388;13.390;2023-12-29T05:46:51;5.70;;;1.90;;
56680;SDS011;42558;52.388;13.390;2023-12-29T05:49:24;6.46;;;2.28;;
56680;SDS011;42558;52.388;13.390;2023-12-29T05:51:55;5.89;;;2.28;;
56680;SDS011;42558;52.388;13.390;2023-12-29T05:54:24;5.70;;;2.28;;
56680;SDS011;42558;52.388;13.390;2023-12-29T05:56:53;5.51;;;1.71;;
56680;SDS011;42558;52.388;13.390;2023-12-29T05:59:23;4.94;;;1.71;;
56680;SDS011;42558;52.388;13.390;2023-12-29T06:01:52;5.70;;;2.28;;
56680;SDS011;42558;52.388;13.390;2023-12-29T06:04:22;6.65;;;2.09;;
56680;SDS011;42558;52.388;13.390;2023-12-29T06:06:51;5.70;;;2.09;;
56680;SDS011;42558;52.388;13.390;2023-12-29T06:09:20;6.84;;;2.66;;
56680;SDS011;42558;52.388;13.390;2023-12-29T06:11:50;6.84;;;2.47;;
56680;SDS011;42558;52.388;13.390;2023-12-29T06:14:19;6.08;;;2.47;;
56680;SDS011;42558;52.388;13.390;2023-12-29T06:16:48;5.51;;;2.09;;
56680;SDS011;42558;52.388;13.390;2023-12-29T06:19:17;8.93;;;2.47;;
56680;SDS011;42558;52.388;13.390;2023-12-29T06:21:47;5.32;;;1.90;;
56680;SDS011;42558;52.388;13.390;2023-12-29T06:24:16;6.65;;;3.04;;
56680;SDS011;42558;52.388;13.390;2023-12-29T06:26:47;6.08;;;2.09;;
56680;SDS011;42558;52.388;13.390;2023-12-29T06:29:16;5.89;;;1.90;;
56680;SDS011;42558;52.388;13.390;2023-12-29T06:31:45;7.60;;;3.04;;
56680;SDS011;42558;52.388;13.390;2023-12-29T06:34:15;5.13;;;1.90;;
56680;SDS011;42558;52.388;13.390;2023-12-29T06:36:44;7.22;;;1.90;;
56680;SDS011;42558;52.388;13.390;2023-12-29T06:39:13;7.03;;;2.66;;
56680;SDS011;42558;52.388;13.390;2023-12-29T06:41:43;6.46;;;2.66;;
56680;SDS011;42558;52.388;13.390;2023-12-29T06:44:12;6.08;;;2.66;;
56680;SDS011;42558;52.388;13.390;2023-12-29T06:46:41;9.69;;;2.28;;
56680;SDS011;42558;52.388;13.390;2023-12-29T06:49:10;5.32;;;2.09;;
56680;SDS011;42558;52.388;13.390;2023-12-29T06:51:40;7.79;;;2.85;;
56680;SDS011;42558;52.388;13.390;2023-12-29T06:54:10;7.79;;;2.47;;
56680;SDS011;42558;52.388;13.390;2023-12-29T06:56:39;5.32;;;2.47;;
56680;SDS011;42558;52.388;13.390;2023-12-29T06:59:08;6.27;;;2.28;;
56680;SDS011;42558;52.388;13.390;2023-12-29T07:01:40;7.60;;;2.09;;
56680;SDS011;42558;52.388;13.390;2023-12-29T07:04:10;6.46;;;2.47;;
56680;SDS011;42558;52.388;13.390;2023-12-29T07:06:40;8.17;;;2.85;;
56680;SDS011;42558;52.388;13.390;2023-12-29T07:09:10;5.70;;;2.66;;
56680;SDS011;42558;52.388;13.390;2023-12-29T07:11:39;6.65;;;2.66;;
56680;SDS011;42558;52.388;13.390;2023-12-29T07:14:08;7.98;;;2.47;;
56680;SDS011;42558;52.388;13.390;2023-12-29T07:16:38;6.08;;;2.66;;
56680;SDS011;42558;52.388;13.390;2023-12-29T07:19:07;6.65;;;2.66;;
56680;SDS011;42558;52.388;13.390;2023-12-29T07:21:36;5.89;;;2.66;;
56680;SDS011;42558;52.388;13.390;2023-12-29T07:24:06;6.08;;;2.66;;
56680;SDS011;42558;52.388;13.390;2023-12-29T07:26:35;7.22;;;2.85;;
56680;SDS011;42558;52.388;13.390;2023-12-29T07:29:07;7.03;;;3.04;;
56680;SDS011;42558;52.388;13.390;2023-12-29T07:31:39;6.84;;;2.66;;
56680;SDS011;42558;52.388;13.390;2023-12-29T07:34:08;5.89;;;2.66;;
56680;SDS011;42558;52.388;13.390;2023-12-29T07:36:39;7.60;;;2.85;;
56680;SDS011;42558;52.388;13.390;2023-12-29T07:39:08;6.27;;;2.47;;
56680;SDS011;42558;52.388;13.390;2023-12-29T07:41:42;5.13;;;2.28;;
56680;SDS011;42558;52.388;13.390;2023-12-29T07:44:12;6.08;;;2.85;;
56680;SDS011;42558;52.388;13.390;2023-12-29T07:46:42;7.60;;;3.04;;
56680;SDS011;42558;52.388;13.390;2023-12-29T07:49:16;6.08;;;2.47;;
56680;SDS011;42558;52.388;13.390;2023-12-29T07:51:46;7.79;;;3.04;;
56680;SDS011;42558;52.388;13.390;2023-12-29T07:54:15;6.84;;;2.66;;
56680;SDS011;42558;52.388;13.390;2023-12-29T07:56:45;7.79;;;3.04;;
56680;SDS011;42558;52.388;13.390;2023-12-29T07:59:14;6.46;;;2.47;;
56680;SDS011;42558;52.388;13.390;2023-12-29T08:01:43;5.32;;;2.09;;
56680;SDS011;42558;52.388;13.390;2023-12-29T08:04:12;7.79;;;2.66;;
56680;SDS011;42558;52.388;13.390;2023-12-29T08:06:44;11.40;;;2.85;;
56680;SDS011;42558;52.388;13.390;2023-12-29T08:09:14;7.03;;;2.66;;
56680;SDS011;42558;52.388;13.390;2023-12-29T08:11:43;7.98;;;3.04;;
56680;SDS011;42558;52.388;13.390;2023-12-29T08:14:12;9.12;;;2.66;;
56680;SDS011;42558;52.388;13.390;2023-12-29T08:16:41;9.31;;;2.66;;
56680;SDS011;42558;52.388;13.390;2023-12-29T08:19:12;6.46;;;2.85;;
56680;SDS011;42558;52.388;13.390;2023-12-29T08:21:41;6.65;;;2.85;;
56680;SDS011;42558;52.388;13.390;2023-12-29T08:24:10;7.60;;;3.23;;
56680;SDS011;42558;52.388;13.390;2023-12-29T08:26:46;6.84;;;2.47;;
56680;SDS011;42558;52.388;13.390;2023-12-29T08:29:16;6.65;;;2.47;;
56680;SDS011;42558;52.388;13.390;2023-12-29T08:31:47;7.41;;;3.04;;
56680;SDS011;42558;52.388;13.390;2023-12-29T08:34:17;9.50;;;3.04;;
56680;SDS011;42558;52.388;13.390;2023-12-29T08:36:48;8.17;;;3.23;;
56680;SDS011;42558;52.388;13.390;2023-12-29T08:39:18;6.46;;;2.66;;
56680;SDS011;42558;52.388;13.390;2023-12-29T08:41:46;7.03;;;2.66;;
56680;SDS011;42558;52.388;13.390;2023-12-29T08:44:15;6.65;;;2.66;;
56680;SDS011;42558;52.388;13.390;2023-12-29T08:46:43;8.17;;;2.66;;
56680;SDS011;42558;52.388;13.390;2023-12-29T08:49:11;7.41;;;2.85;;
56680;SDS011;42558;52.388;13.390;2023-12-29T08:51:40;8.93;;;2.85;;
56680;SDS011;42558;52.388;13.390;2023-12-29T08:54:08;5.89;;;2.28;;
56680;SDS011;42558;52.388;13.390;2023-12-29T08:56:36;9.31;;;3.04;;
56680;SDS011;42558;52.388;13.390;2023-12-29T08:59:05;6.84;;;2.85;;
56680;SDS011;42558;52.388;13.390;2023-12-29T09:01:32;6.84;;;2.85;;
56680;SDS011;42558;52.388;13.390;2023-12-29T09:04:01;9.12;;;3.04;;
56680;SDS011;42558;52.388;13.390;2023-12-29T09:06:29;7.79;;;2.85;;
56680;SDS011;42558;52.388;13.390;2023-12-29T09:08:58;9.88;;;3.04;;
56680;SDS011;42558;52.388;13.390;2023-12-29T09:11:26;7.79;;;2.66;;
56680;SDS011;42558;52.388;13.390;2023-12-29T09:13:54;7.79;;;2.85;;
56680;SDS011;42558;52.388;13.390;2023-12-29T09:16:23;10.83;;;2.66;;
56680;SDS011;42558;52.388;13.390;2023-12-29T09:18:51;7.60;;;3.04;;
56680;SDS011;42558;52.388;13.390;2023-12-29T09:21:20;10.64;;;2.85;;
56680;SDS011;42558;52.388;13.390;2023-12-29T09:23:48;9.50;;;2.66;;
56680;SDS011;42558;52.388;13.390;2023-12-29T09:26:16;8.17;;;3.04;;
56680;SDS011;42558;52.388;13.390;2023-12-29T09:28:45;6.84;;;2.66;;
56680;SDS011;42558;52.388;13.390;2023-12-29T09:31:13;7.41;;;2.66;;
56680;SDS011;42558;52.388;13.390;2023-12-29T09:33:42;9.88;;;2.85;;
56680;SDS011;42558;52.388;13.390;2023-12-29T09:36:10;7.79;;;2.85;;
56680;SDS011;42558;52.388;13.390;2023-12-29T09:38:38;11.40;;;2.66;;
56680;SDS011;42558;52.388;13.390;2023-12-29T09:41:11;8.36;;;3.80;;
56680;SDS011;42558;52.388;13.390;2023-12-29T09:43:46;6.65;;;2.28;;
56680;SDS011;42558;52.388;13.390;2023-12-29T09:46:18;9.31;;;2.66;;
56680;SDS011;42558;52.388;13.390;2023-12-29T09:48:52;9.69;;;2.66;;
56680;SDS011;42558;52.388;13.390;2023-12-29T09:51:25;8.74;;;2.66;;
56680;SDS011;42558;52.388;13.390;2023-12-29T09:53:56;8.74;;;2.47;;
56680;SDS011;42558;52.388;13.390;2023-12-29T09:56:27;8.36;;;2.28;;
56680;SDS011;42558;52.388;13.390;2023-12-29T09:58:57;5.32;;;2.28;;
56680;SDS011;42558;52.388;13.390;2023-12-29T10:01:28;7.22;;;2.66;;
56680;SDS011;42558;52.388;13.390;2023-12-29T10:03:59;7.22;;;2.66;;
56680;SDS011;42558;52.388;13.390;2023-12-29T10:06:31;6.27;;;2.09;;
56680;SDS011;42558;52.388;13.390;2023-12-29T10:09:07;7.60;;;2.28;;
56680;SDS011;42558;52.388;13.390;2023-12-29T10:11:43;7.98;;;2.66;;
56680;SDS011;42558;52.388;13.390;2023-12-29T10:14:24;6.46;;;2.09;;
56680;SDS011;42558;52.388;13.390;2023-12-29T10:20:39;7.03;;;2.85;;
56680;SDS011;42558;52.388;13.390;2023-12-29T10:23:20;7.41;;;2.47;;
56680;SDS011;42558;52.388;13.390;2023-12-29T10:25:57;7.60;;;2.47;;
56680;SDS011;42558;52.388;13.390;2023-12-29T10:28:26;7.03;;;2.47;;
56680;SDS011;42558;52.388;13.390;2023-12-29T10:30:56;7.79;;;2.66;;
56680;SDS011;42558;52.388;13.390;2023-12-29T10:33:25;7.60;;;2.28;;
56680;SDS011;42558;52.388;13.390;2023-12-29T10:35:57;7.22;;;2.47;;
56680;SDS011;42558;52.388;13.390;2023-12-29T10:38:32;6.65;;;2.28;;
56680;SDS011;42558;52.388;13.390;2023-12-29T10:41:16;7.41;;;2.85;;
56680;SDS011;42558;52.388;13.390;2023-12-29T10:43:47;5.89;;;2.66;;
56680;SDS011;42558;52.388;13.390;2023-12-29T10:46:20;6.84;;;2.47;;
56680;SDS011;42558;52.388;13.390;2023-12-29T10:48:50;6.08;;;2.09;;
56680;SDS011;42558;52.388;13.390;2023-12-29T10:51:27;6.27;;;2.47;;
56680;SDS011;42558;52.388;13.390;2023-12-29T10:53:57;10.07;;;2.66;;
56680;SDS011;42558;52.388;13.390;2023-12-29T10:56:27;6.65;;;2.28;;
56680;SDS011;42558;52.388;13.390;2023-12-29T10:59:04;5.89;;;2.47;;
56680;SDS011;42558;52.388;13.390;2023-12-29T11:01:35;6.46;;;2.09;;
56680;SDS011;42558;52.388;13.390;2023-12-29T11:04:06;7.41;;;2.66;;
56680;SDS011;42558;52.388;13.390;2023-12-29T11:06:43;6.27;;;2.66;;
56680;SDS011;42558;52.388;13.390;2023-12-29T11:09:27;9.31;;;3.04;;
56680;SDS011;42558;52.388;13.390;2023-12-29T11:12:02;6.65;;;2.28;;
56680;SDS011;42558;52.388;13.390;2023-12-29T11:14:33;7.60;;;2.47;;
56680;SDS011;42558;52.388;13.390;2023-12-29T11:17:03;6.84;;;2.47;;
56680;SDS011;42558;52.388;13.390;2023-12-29T11:19:33;7.41;;;2.66;;
56680;SDS011;42558;52.388;13.390;2023-12-29T11:22:03;11.78;;;3.23;;
56680;SDS011;42558;52.388;13.390;2023-12-29T11:24:33;6.27;;;2.28;;
56680;SDS011;42558;52.388;13.390;2023-12-29T11:27:12;8.17;;;2.66;;
56680;SDS011;42558;52.388;13.390;2023-12-29T11:29:42;9.12;;;2.85;;
56680;SDS011;42558;52.388;13.390;2023-12-29T11:32:16;6.65;;;2.09;;
56680;SDS011;42558;52.388;13.390;2023-12-29T11:34:56;8.74;;;2.85;;
56680;SDS011;42558;52.388;13.390;2023-12-29T11:41:08;8.74;;;3.04;;
56680;SDS011;42558;52.388;13.390;2023-12-29T11:43:43;6.84;;;2.47;;
56680;SDS011;42558;52.388;13.390;2023-12-29T11:46:39;11.59;;;2.47;;
56680;SDS011;42558;52.388;13.390;2023-12-29T11:49:12;8.93;;;2.47;;
56680;SDS011;42558;52.388;13.390;2023-12-29T11:51:47;9.69;;;2.47;;
56680;SDS011;42558;52.388;13.390;2023-12-29T11:54:24;7.22;;;2.47;;
56680;SDS011;42558;52.388;13.390;2023-12-29T11:56:55;7.79;;;2.66;;
56680;SDS011;42558;52.388;13.390;2023-12-29T11:59:25;7.79;;;2.47;;
56680;SDS011;42558;52.388;13.390;2023-12-29T12:01:58;7.22;;;2.66;;
56680;SDS011;42558;52.388;13.390;2023-12-29T12:04:41;6.84;;;3.04;;
56680;SDS011;42558;52.388;13.390;2023-12-29T12:09:51;7.03;;;2.47;;
56680;SDS011;42558;52.388;13.390;2023-12-29T12:12:42;8.36;;;2.66;;
56680;SDS011;42558;52.388;13.390;2023-12-29T12:18:03;10.45;;;4.37;;
56680;SDS011;42558;52.388;13.390;2023-12-29T12:20:38;10.26;;;2.28;;
56680;SDS011;42558;52.388;13.390;2023-12-29T12:23:16;8.17;;;2.66;;
56680;SDS011;42558;52.388;13.390;2023-12-29T12:25:45;8.93;;;3.04;;
56680;SDS011;42558;52.388;13.390;2023-12-29T12:28:14;8.74;;;2.85;;
56680;SDS011;42558;52.388;13.390;2023-12-29T12:30:44;6.84;;;1.90;;
56680;SDS011;42558;52.388;13.390;2023-12-29T12:33:15;7.03;;;2.09;;
56680;SDS011;42558;52.388;13.390;2023-12-29T12:35:44;5.70;;;1.90;;
56680;SDS011;42558;52.388;13.390;2023-12-29T12:38:16;7.03;;;2.28;;
56680;SDS011;42558;52.388;13.390;2023-12-29T12:40:50;6.46;;;2.47;;
56680;SDS011;42558;52.388;13.390;2023-12-29T12:43:23;7.79;;;2.09;;
56680;SDS011;42558;52.388;13.390;2023-12-29T12:45:59;7.98;;;2.47;;
56680;SDS011;42558;52.388;13.390;2023-12-29T12:48:49;6.27;;;2.47;;
56680;SDS011;42558;52.388;13.390;2023-12-29T12:51:20;7.60;;;2.47;;
56680;SDS011;42558;52.388;13.390;2023-12-29T12:53:51;7.79;;;2.66;;
56680;SDS011;42558;52.388;13.390;2023-12-29T12:56:21;7.03;;;2.09;;
56680;SDS011;42558;52.388;13.390;2023-12-29T12:58:49;8.55;;;3.04;;
56680;SDS011;42558;52.388;13.390;2023-12-29T13:01:18;8.74;;;3.04;;
56680;SDS011;42558;52.388;13.390;2023-12-29T13:03:46;7.41;;;2.66;;
56680;SDS011;42558;52.388;13.390;2023-12-29T13:06:15;5.51;;;2.28;;
56680;SDS011;42558;52.388;13.390;2023-12-29T13:08:44;9.12;;;2.66;;
56680;SDS011;42558;52.388;13.390;2023-12-29T13:11:11;5.51;;;2.28;;
56680;SDS011;42558;52.388;13.390;2023-12-29T13:13:44;8.17;;;2.66;;
56680;SDS011;42558;52.388;13.390;2023-12-29T13:16:11;7.22;;;2.66;;
56680;SDS011;42558;52.388;13.390;2023-12-29T13:18:40;7.03;;;2.85;;
56680;SDS011;42558;52.388;13.390;2023-12-29T13:21:08;7.22;;;2.28;;
56680;SDS011;42558;52.388;13.390;2023-12-29T13:23:36;8.36;;;2.28;;
56680;SDS011;42558;52.388;13.390;2023-12-29T13:26:07;5.51;;;2.47;;
56680;SDS011;42558;52.388;13.390;2023-12-29T13:28:38;6.08;;;2.47;;
56680;SDS011;42558;52.388;13.390;2023-12-29T13:31:11;6.27;;;2.28;;
56680;SDS011;42558;52.388;13.390;2023-12-29T13:34:04;7.79;;;2.66;;
56680;SDS011;42558;52.388;13.390;2023-12-29T13:36:59;6.27;;;2.28;;
56680;SDS011;42558;52.388;13.390;2023-12-29T13:39:42;5.70;;;2.28;;
56680;SDS011;42558;52.388;13.390;2023-12-29T13:42:22;5.51;;;2.28;;
56680;SDS011;42558;52.388;13.390;2023-12-29T13:44:58;8.17;;;2.09;;
56680;SDS011;42558;52.388;13.390;2023-12-29T13:47:31;5.32;;;2.09;;
56680;SDS011;42558;52.388;13.390;2023-12-29T13:50:03;5.70;;;1.90;;
56680;SDS011;42558;52.388;13.390;2023-12-29T13:52:35;8.36;;;2.28;;
56680;SDS011;42558;52.388;13.390;2023-12-29T13:55:09;6.65;;;2.28;;
56680;SDS011;42558;52.388;13.390;2023-12-29T13:57:38;7.03;;;2.28;;
56680;SDS011;42558;52.388;13.390;2023-12-29T14:00:15;5.89;;;2.47;;
56680;SDS011;42558;52.388;13.390;2023-12-29T14:03:54;8.36;;;2.85;;
56680;SDS011;42558;52.388;13.390;2023-12-29T14:06:08;7.22;;;2.47;;
56680;SDS011;42558;52.388;13.390;2023-12-29T14:08:46;5.32;;;2.47;;
56680;SDS011;42558;52.388;13.390;2023-12-29T14:11:13;4.94;;;1.90;;
56680;SDS011;42558;52.388;13.390;2023-12-29T14:13:45;6.46;;;1.90;;
56680;SDS011;42558;52.388;13.390;2023-12-29T14:16:17;6.27;;;2.09;;
56680;SDS011;42558;52.388;13.390;2023-12-29T14:18:57;7.79;;;2.28;;
56680;SDS011;42558;52.388;13.390;2023-12-29T14:21:31;6.46;;;2.09;;
56680;SDS011;42558;52.388;13.390;2023-12-29T14:24:12;7.60;;;2.66;;
56680;SDS011;42558;52.388;13.390;2023-12-29T14:29:22;5.89;;;2.09;;
56680;SDS011;42558;52.388;13.390;2023-12-29T14:31:52;5.89;;;2.28;;
56680;SDS011;42558;52.388;13.390;2023-12-29T14:34:22;6.84;;;2.09;;
56680;SDS011;42558;52.388;13.390;2023-12-29T14:36:52;6.08;;;2.09;;
56680;SDS011;42558;52.388;13.390;2023-12-29T14:39:21;5.13;;;2.09;;
56680;SDS011;42558;52.388;13.390;2023-12-29T14:41:50;6.08;;;2.09;;
56680;SDS011;42558;52.388;13.390;2023-12-29T14:44:21;6.84;;;2.28;;
56680;SDS011;42558;52.388;13.390;2023-12-29T14:46:52;6.08;;;2.09;;
56680;SDS011;42558;52.388;13.390;2023-12-29T14:49:22;6.84;;;2.66;;
56680;SDS011;42558;52.388;13.390;2023-12-29T14:51:51;7.22;;;1.90;;
56680;SDS011;42558;52.388;13.390;2023-12-29T14:54:22;5.89;;;2.28;;
56680;SDS011;42558;52.388;13.390;2023-12-29T14:56:51;5.89;;;1.71;;
56680;SDS011;42558;52.388;13.390;2023-12-29T14:59:22;5.13;;;2.09;;
56680;SDS011;42558;52.388;13.390;2023-12-29T15:01:52;6.65;;;2.47;;
56680;SDS011;42558;52.388;13.390;2023-12-29T15:04:21;4.94;;;1.90;;
56680;SDS011;42558;52.388;13.390;2023-12-29T15:06:51;7.41;;;2.09;;
56680;SDS011;42558;52.388;13.390;2023-12-29T15:09:20;6.65;;;1.90;;
56680;SDS011;42558;52.388;13.390;2023-12-29T15:11:50;6.27;;;2.28;;